sensor_id;sensor_type;location;lat;lon;timestamp;P1;durP1;ratioP1;P2;durP2;ratioP2
9912;SDS011;41380;52.548;13.344;2022-10-16T00:01:45;3.55;;;2.78;;
9912;SDS011;41380;52.548;13.344;2022-10-16T00:04:12;2.85;;;2.65;;
9912;SDS011;41380;52.548;13.344;2022-10-16T00:06:39;3.35;;;2.67;;
9912;SDS011;41380;52.548;13.344;2022-10-16T00:09:08;2.90;;;2.65;;
9912;SDS011;41380;52.548;13.344;2022-10-16T00:11:35;2.70;;;2.40;;
9912;SDS011;41380;52.548;13.344;2022-10-16T00:14:05;2.45;;;2.25;;
9912;SDS011;41380;52.548;13.344;2022-10-16T00:16:33;2.60;;;2.40;;
9912;SDS011;41380;52.548;13.344;2022-10-16T00:19:00;7.70;;;3.03;;
9912;SDS011;41380;52.548;13.344;2022-10-16T00:21:29;2.60;;;2.40;;
9912;SDS011;41380;52.548;13.344;2022-10-16T00:23:58;2.60;;;2.40;;
9912;SDS011;41380;52.548;13.344;2022-10-16T00:26:29;2.85;;;2.65;;
9912;SDS011;41380;52.548;13.344;2022-10-16T00:28:57;2.33;;;2.17;;
9912;SDS011;41380;52.548;13.344;2022-10-16T00:31:24;2.17;;;2.08;;
9912;SDS011;41380;52.548;13.344;2022-10-16T00:33:52;2.47;;;2.28;;
9912;SDS011;41380;52.548;13.344;2022-10-16T00:36:20;2.47;;;2.28;;
9912;SDS011;41380;52.548;13.344;2022-10-16T00:38:49;2.88;;;2.55;;
9912;SDS011;41380;52.548;13.344;2022-10-16T00:41:17;2.45;;;2.28;;
9912;SDS011;41380;52.548;13.344;2022-10-16T00:43:46;2.65;;;2.30;;
9912;SDS011;41380;52.548;13.344;2022-10-16T00:46:15;2.50;;;2.30;;
9912;SDS011;41380;52.548;13.344;2022-10-16T00:48:49;2.47;;;2.28;;
9912;SDS011;41380;52.548;13.344;2022-10-16T00:51:19;2.30;;;2.08;;
9912;SDS011;41380;52.548;13.344;2022-10-16T00:53:49;2.67;;;2.47;;
9912;SDS011;41380;52.548;13.344;2022-10-16T00:56:16;3.33;;;2.60;;
9912;SDS011;41380;52.548;13.344;2022-10-16T00:58:45;2.80;;;2.33;;
9912;SDS011;41380;52.548;13.344;2022-10-16T01:01:12;2.28;;;2.08;;
9912;SDS011;41380;52.548;13.344;2022-10-16T01:03:39;2.65;;;2.45;;
9912;SDS011;41380;52.548;13.344;2022-10-16T01:06:18;2.70;;;2.50;;
9912;SDS011;41380;52.548;13.344;2022-10-16T01:08:52;2.50;;;2.30;;
9912;SDS011;41380;52.548;13.344;2022-10-16T01:11:38;2.65;;;2.45;;
9912;SDS011;41380;52.548;13.344;2022-10-16T01:14:14;2.35;;;2.17;;
9912;SDS011;41380;52.548;13.344;2022-10-16T01:16:48;2.95;;;2.30;;
9912;SDS011;41380;52.548;13.344;2022-10-16T01:19:20;2.40;;;2.20;;
9912;SDS011;41380;52.548;13.344;2022-10-16T01:21:59;2.58;;;2.38;;
9912;SDS011;41380;52.548;13.344;2022-10-16T01:24:30;2.58;;;2.00;;
9912;SDS011;41380;52.548;13.344;2022-10-16T01:27:07;2.40;;;2.20;;
9912;SDS011;41380;52.548;13.344;2022-10-16T01:29:37;2.38;;;2.17;;
9912;SDS011;41380;52.548;13.344;2022-10-16T01:32:10;2.17;;;2.08;;
9912;SDS011;41380;52.548;13.344;2022-10-16T01:34:45;2.00;;;1.90;;
9912;SDS011;41380;52.548;13.344;2022-10-16T01:37:20;2.30;;;2.10;;
9912;SDS011;41380;52.548;13.344;2022-10-16T01:39:55;2.90;;;2.70;;
9912;SDS011;41380;52.548;13.344;2022-10-16T01:42:28;2.55;;;2.38;;
9912;SDS011;41380;52.548;13.344;2022-10-16T01:44:59;2.47;;;2.20;;
9912;SDS011;41380;52.548;13.344;2022-10-16T01:47:28;2.38;;;2.25;;
9912;SDS011;41380;52.548;13.344;2022-10-16T01:49:57;2.78;;;2.45;;
9912;SDS011;41380;52.548;13.344;2022-10-16T01:52:29;2.33;;;2.13;;
9912;SDS011;41380;52.548;13.344;2022-10-16T01:55:00;2.30;;;2.20;;
9912;SDS011;41380;52.548;13.344;2022-10-16T01:57:32;2.00;;;1.90;;
9912;SDS011;41380;52.548;13.344;2022-10-16T02:00:04;2.22;;;2.13;;
9912;SDS011;41380;52.548;13.344;2022-10-16T02:02:34;2.55;;;2.20;;
9912;SDS011;41380;52.548;13.344;2022-10-16T02:05:03;2.08;;;1.98;;
9912;SDS011;41380;52.548;13.344;2022-10-16T02:07:36;2.38;;;2.17;;
9912;SDS011;41380;52.548;13.344;2022-10-16T02:10:04;2.28;;;2.10;;
9912;SDS011;41380;52.548;13.344;2022-10-16T02:12:33;2.45;;;2.25;;
9912;SDS011;41380;52.548;13.344;2022-10-16T02:15:02;2.10;;;2.00;;
9912;SDS011;41380;52.548;13.344;2022-10-16T02:17:30;2.63;;;2.38;;
9912;SDS011;41380;52.548;13.344;2022-10-16T02:19:57;2.10;;;2.00;;
9912;SDS011;41380;52.548;13.344;2022-10-16T02:22:27;2.33;;;2.13;;
9912;SDS011;41380;52.548;13.344;2022-10-16T02:24:57;2.30;;;2.10;;
9912;SDS011;41380;52.548;13.344;2022-10-16T02:27:28;2.00;;;1.90;;
9912;SDS011;41380;52.548;13.344;2022-10-16T02:30:03;2.38;;;2.17;;
9912;SDS011;41380;52.548;13.344;2022-10-16T02:32:39;2.72;;;2.28;;
9912;SDS011;41380;52.548;13.344;2022-10-16T02:35:08;2.20;;;2.00;;
9912;SDS011;41380;52.548;13.344;2022-10-16T02:37:36;2.10;;;2.00;;
9912;SDS011;41380;52.548;13.344;2022-10-16T02:40:07;3.90;;;2.05;;
9912;SDS011;41380;52.548;13.344;2022-10-16T02:42:35;2.10;;;2.00;;
9912;SDS011;41380;52.548;13.344;2022-10-16T02:45:05;2.22;;;2.00;;
9912;SDS011;41380;52.548;13.344;2022-10-16T02:47:33;2.05;;;1.83;;
9912;SDS011;41380;52.548;13.344;2022-10-16T02:50:03;2.55;;;2.17;;
9912;SDS011;41380;52.548;13.344;2022-10-16T02:52:30;1.90;;;1.77;;
9912;SDS011;41380;52.548;13.344;2022-10-16T02:54:57;2.30;;;2.20;;
9912;SDS011;41380;52.548;13.344;2022-10-16T02:57:24;2.53;;;2.33;;
9912;SDS011;41380;52.548;13.344;2022-10-16T02:59:51;2.35;;;2.13;;
9912;SDS011;41380;52.548;13.344;2022-10-16T03:02:19;2.50;;;1.90;;
9912;SDS011;41380;52.548;13.344;2022-10-16T03:04:46;2.92;;;2.45;;
9912;SDS011;41380;52.548;13.344;2022-10-16T03:07:13;2.22;;;2.13;;
9912;SDS011;41380;52.548;13.344;2022-10-16T03:09:40;2.55;;;2.35;;
9912;SDS011;41380;52.548;13.344;2022-10-16T03:12:07;2.65;;;2.30;;
9912;SDS011;41380;52.548;13.344;2022-10-16T03:14:34;2.30;;;2.20;;
9912;SDS011;41380;52.548;13.344;2022-10-16T03:17:01;2.40;;;2.20;;
9912;SDS011;41380;52.548;13.344;2022-10-16T03:19:29;3.42;;;2.40;;
9912;SDS011;41380;52.548;13.344;2022-10-16T03:21:56;2.03;;;1.92;;
9912;SDS011;41380;52.548;13.344;2022-10-16T03:24:23;2.40;;;2.25;;
9912;SDS011;41380;52.548;13.344;2022-10-16T03:26:50;2.33;;;2.13;;
9912;SDS011;41380;52.548;13.344;2022-10-16T03:29:17;2.70;;;2.40;;
9912;SDS011;41380;52.548;13.344;2022-10-16T03:31:44;2.50;;;2.30;;
9912;SDS011;41380;52.548;13.344;2022-10-16T03:34:10;2.78;;;2.30;;
9912;SDS011;41380;52.548;13.344;2022-10-16T03:36:39;3.15;;;2.67;;
9912;SDS011;41380;52.548;13.344;2022-10-16T03:39:05;2.38;;;2.28;;
9912;SDS011;41380;52.548;13.344;2022-10-16T03:41:32;2.50;;;2.30;;
9912;SDS011;41380;52.548;13.344;2022-10-16T03:43:59;2.30;;;2.20;;
9912;SDS011;41380;52.548;13.344;2022-10-16T03:46:26;2.20;;;2.10;;
9912;SDS011;41380;52.548;13.344;2022-10-16T03:48:53;2.70;;;2.50;;
9912;SDS011;41380;52.548;13.344;2022-10-16T03:51:20;2.50;;;2.30;;
9912;SDS011;41380;52.548;13.344;2022-10-16T03:53:48;3.15;;;2.38;;
9912;SDS011;41380;52.548;13.344;2022-10-16T03:56:15;2.33;;;2.20;;
9912;SDS011;41380;52.548;13.344;2022-10-16T03:58:42;3.88;;;2.45;;
9912;SDS011;41380;52.548;13.344;2022-10-16T04:01:09;2.80;;;2.22;;
9912;SDS011;41380;52.548;13.344;2022-10-16T04:03:35;2.72;;;2.50;;
9912;SDS011;41380;52.548;13.344;2022-10-16T04:06:02;2.50;;;2.30;;
9912;SDS011;41380;52.548;13.344;2022-10-16T04:08:29;3.03;;;2.83;;
9912;SDS011;41380;52.548;13.344;2022-10-16T04:11:01;2.95;;;2.60;;
9912;SDS011;41380;52.548;13.344;2022-10-16T04:13:28;3.40;;;2.53;;
9912;SDS011;41380;52.548;13.344;2022-10-16T04:15:55;2.80;;;2.47;;
9912;SDS011;41380;52.548;13.344;2022-10-16T04:18:22;2.72;;;2.53;;
9912;SDS011;41380;52.548;13.344;2022-10-16T04:20:52;2.85;;;2.58;;
9912;SDS011;41380;52.548;13.344;2022-10-16T04:23:18;3.28;;;2.67;;
9912;SDS011;41380;52.548;13.344;2022-10-16T04:25:45;2.97;;;2.78;;
9912;SDS011;41380;52.548;13.344;2022-10-16T04:28:14;2.72;;;2.53;;
9912;SDS011;41380;52.548;13.344;2022-10-16T04:30:40;3.00;;;2.80;;
9912;SDS011;41380;52.548;13.344;2022-10-16T04:33:10;2.60;;;2.40;;
9912;SDS011;41380;52.548;13.344;2022-10-16T04:35:38;2.88;;;2.67;;
9912;SDS011;41380;52.548;13.344;2022-10-16T04:38:05;2.88;;;2.67;;
9912;SDS011;41380;52.548;13.344;2022-10-16T04:40:32;2.83;;;2.63;;
9912;SDS011;41380;52.548;13.344;2022-10-16T04:43:01;2.92;;;2.70;;
9912;SDS011;41380;52.548;13.344;2022-10-16T04:45:29;2.65;;;2.45;;
9912;SDS011;41380;52.548;13.344;2022-10-16T04:47:56;3.00;;;2.70;;
9912;SDS011;41380;52.548;13.344;2022-10-16T04:50:23;2.75;;;2.47;;
9912;SDS011;41380;52.548;13.344;2022-10-16T04:52:50;3.00;;;2.80;;
9912;SDS011;41380;52.548;13.344;2022-10-16T04:55:17;2.72;;;2.53;;
9912;SDS011;41380;52.548;13.344;2022-10-16T04:57:44;2.90;;;2.70;;
9912;SDS011;41380;52.548;13.344;2022-10-16T05:00:11;2.70;;;2.50;;
9912;SDS011;41380;52.548;13.344;2022-10-16T05:02:39;3.05;;;2.60;;
9912;SDS011;41380;52.548;13.344;2022-10-16T05:05:06;2.53;;;2.38;;
9912;SDS011;41380;52.548;13.344;2022-10-16T05:07:33;3.22;;;2.85;;
9912;SDS011;41380;52.548;13.344;2022-10-16T05:10:00;2.67;;;2.47;;
9912;SDS011;41380;52.548;13.344;2022-10-16T05:12:27;2.95;;;2.75;;
9912;SDS011;41380;52.548;13.344;2022-10-16T05:14:54;3.83;;;2.95;;
9912;SDS011;41380;52.548;13.344;2022-10-16T05:17:23;3.30;;;3.00;;
9912;SDS011;41380;52.548;13.344;2022-10-16T05:19:52;2.97;;;2.67;;
9912;SDS011;41380;52.548;13.344;2022-10-16T05:22:19;3.03;;;2.60;;
9912;SDS011;41380;52.548;13.344;2022-10-16T05:24:46;3.00;;;2.80;;
9912;SDS011;41380;52.548;13.344;2022-10-16T05:27:13;3.03;;;2.80;;
9912;SDS011;41380;52.548;13.344;2022-10-16T05:29:44;2.70;;;2.50;;
9912;SDS011;41380;52.548;13.344;2022-10-16T05:32:11;3.85;;;2.95;;
9912;SDS011;41380;52.548;13.344;2022-10-16T05:34:38;3.10;;;2.90;;
9912;SDS011;41380;52.548;13.344;2022-10-16T05:37:07;2.97;;;2.78;;
9912;SDS011;41380;52.548;13.344;2022-10-16T05:39:33;2.72;;;2.53;;
9912;SDS011;41380;52.548;13.344;2022-10-16T05:42:01;2.72;;;2.53;;
9912;SDS011;41380;52.548;13.344;2022-10-16T05:44:28;2.97;;;2.70;;
9912;SDS011;41380;52.548;13.344;2022-10-16T05:46:55;3.25;;;2.92;;
9912;SDS011;41380;52.548;13.344;2022-10-16T05:49:22;4.10;;;2.95;;
9912;SDS011;41380;52.548;13.344;2022-10-16T05:51:49;3.10;;;2.80;;
9912;SDS011;41380;52.548;13.344;2022-10-16T05:54:17;3.00;;;2.80;;
9912;SDS011;41380;52.548;13.344;2022-10-16T05:56:44;3.63;;;2.92;;
9912;SDS011;41380;52.548;13.344;2022-10-16T05:59:12;3.40;;;3.10;;
9912;SDS011;41380;52.548;13.344;2022-10-16T06:01:39;3.53;;;3.22;;
9912;SDS011;41380;52.548;13.344;2022-10-16T06:04:06;3.35;;;3.10;;
9912;SDS011;41380;52.548;13.344;2022-10-16T06:06:32;3.17;;;2.88;;
9912;SDS011;41380;52.548;13.344;2022-10-16T06:09:01;2.88;;;2.67;;
9912;SDS011;41380;52.548;13.344;2022-10-16T06:11:33;4.65;;;3.03;;
9912;SDS011;41380;52.548;13.344;2022-10-16T06:14:00;3.20;;;3.00;;
9912;SDS011;41380;52.548;13.344;2022-10-16T06:16:32;3.35;;;3.05;;
9912;SDS011;41380;52.548;13.344;2022-10-16T06:18:59;3.53;;;3.03;;
9912;SDS011;41380;52.548;13.344;2022-10-16T06:21:27;3.33;;;3.03;;
9912;SDS011;41380;52.548;13.344;2022-10-16T06:23:55;3.15;;;2.70;;
9912;SDS011;41380;52.548;13.344;2022-10-16T06:26:24;3.40;;;2.78;;
9912;SDS011;41380;52.548;13.344;2022-10-16T06:28:55;3.22;;;2.92;;
9912;SDS011;41380;52.548;13.344;2022-10-16T06:31:26;3.10;;;2.80;;
9912;SDS011;41380;52.548;13.344;2022-10-16T06:33:56;3.22;;;2.72;;
9912;SDS011;41380;52.548;13.344;2022-10-16T06:36:24;4.15;;;2.92;;
9912;SDS011;41380;52.548;13.344;2022-10-16T06:38:51;5.75;;;3.13;;
9912;SDS011;41380;52.548;13.344;2022-10-16T06:41:19;2.85;;;2.65;;
9912;SDS011;41380;52.548;13.344;2022-10-16T06:43:48;3.42;;;3.10;;
9912;SDS011;41380;52.548;13.344;2022-10-16T06:46:17;3.13;;;2.83;;
9912;SDS011;41380;52.548;13.344;2022-10-16T06:48:47;3.08;;;2.75;;
9912;SDS011;41380;52.548;13.344;2022-10-16T06:51:15;3.22;;;2.92;;
9912;SDS011;41380;52.548;13.344;2022-10-16T06:53:44;3.20;;;2.90;;
9912;SDS011;41380;52.548;13.344;2022-10-16T06:56:14;3.28;;;3.00;;
9912;SDS011;41380;52.548;13.344;2022-10-16T06:58:43;3.50;;;3.20;;
9912;SDS011;41380;52.548;13.344;2022-10-16T07:01:10;4.93;;;3.53;;
9912;SDS011;41380;52.548;13.344;2022-10-16T07:03:39;3.75;;;3.45;;
9912;SDS011;41380;52.548;13.344;2022-10-16T07:06:08;3.20;;;2.70;;
9912;SDS011;41380;52.548;13.344;2022-10-16T07:08:37;3.03;;;2.72;;
9912;SDS011;41380;52.548;13.344;2022-10-16T07:11:07;2.92;;;2.60;;
9912;SDS011;41380;52.548;13.344;2022-10-16T07:13:36;2.97;;;2.25;;
9912;SDS011;41380;52.548;13.344;2022-10-16T07:16:07;4.63;;;2.80;;
9912;SDS011;41380;52.548;13.344;2022-10-16T07:18:35;2.40;;;2.20;;
9912;SDS011;41380;52.548;13.344;2022-10-16T07:21:05;2.55;;;2.35;;
9912;SDS011;41380;52.548;13.344;2022-10-16T07:23:33;2.92;;;2.35;;
9912;SDS011;41380;52.548;13.344;2022-10-16T07:26:00;2.45;;;2.25;;
9912;SDS011;41380;52.548;13.344;2022-10-16T07:28:27;2.70;;;2.05;;
9912;SDS011;41380;52.548;13.344;2022-10-16T07:30:54;2.88;;;2.38;;
9912;SDS011;41380;52.548;13.344;2022-10-16T07:33:21;3.28;;;2.10;;
9912;SDS011;41380;52.548;13.344;2022-10-16T07:35:49;3.25;;;2.20;;
9912;SDS011;41380;52.548;13.344;2022-10-16T07:38:19;3.97;;;2.47;;
9912;SDS011;41380;52.548;13.344;2022-10-16T07:40:47;2.40;;;2.10;;
9912;SDS011;41380;52.548;13.344;2022-10-16T07:43:21;2.95;;;2.30;;
9912;SDS011;41380;52.548;13.344;2022-10-16T07:45:48;3.38;;;2.40;;
9912;SDS011;41380;52.548;13.344;2022-10-16T07:48:16;2.10;;;1.95;;
9912;SDS011;41380;52.548;13.344;2022-10-16T07:50:44;3.05;;;2.75;;
9912;SDS011;41380;52.548;13.344;2022-10-16T07:53:11;3.97;;;2.83;;
9912;SDS011;41380;52.548;13.344;2022-10-16T07:55:39;2.20;;;2.00;;
9912;SDS011;41380;52.548;13.344;2022-10-16T07:58:06;2.33;;;2.13;;
9912;SDS011;41380;52.548;13.344;2022-10-16T08:00:34;2.90;;;2.10;;
9912;SDS011;41380;52.548;13.344;2022-10-16T08:03:03;3.60;;;2.90;;
9912;SDS011;41380;52.548;13.344;2022-10-16T08:05:30;2.70;;;2.50;;
9912;SDS011;41380;52.548;13.344;2022-10-16T08:07:59;4.22;;;2.38;;
9912;SDS011;41380;52.548;13.344;2022-10-16T08:10:26;5.00;;;2.40;;
9912;SDS011;41380;52.548;13.344;2022-10-16T08:12:55;5.25;;;4.00;;
9912;SDS011;41380;52.548;13.344;2022-10-16T08:15:22;2.67;;;2.08;;
9912;SDS011;41380;52.548;13.344;2022-10-16T08:17:56;1.80;;;1.70;;
9912;SDS011;41380;52.548;13.344;2022-10-16T08:20:24;2.60;;;2.40;;
9912;SDS011;41380;52.548;13.344;2022-10-16T08:22:51;2.50;;;2.00;;
9912;SDS011;41380;52.548;13.344;2022-10-16T08:25:19;2.67;;;1.88;;
9912;SDS011;41380;52.548;13.344;2022-10-16T08:27:46;3.63;;;1.92;;
9912;SDS011;41380;52.548;13.344;2022-10-16T08:30:15;2.50;;;1.90;;
9912;SDS011;41380;52.548;13.344;2022-10-16T08:32:42;1.90;;;1.67;;
9912;SDS011;41380;52.548;13.344;2022-10-16T08:35:09;2.10;;;1.58;;
9912;SDS011;41380;52.548;13.344;2022-10-16T08:37:37;2.00;;;1.80;;
9912;SDS011;41380;52.548;13.344;2022-10-16T08:40:05;2.72;;;1.90;;
9912;SDS011;41380;52.548;13.344;2022-10-16T08:42:40;2.00;;;1.80;;
9912;SDS011;41380;52.548;13.344;2022-10-16T08:45:23;2.08;;;1.98;;
9912;SDS011;41380;52.548;13.344;2022-10-16T08:48:00;1.88;;;1.77;;
9912;SDS011;41380;52.548;13.344;2022-10-16T08:50:37;1.85;;;1.75;;
9912;SDS011;41380;52.548;13.344;2022-10-16T08:53:06;2.25;;;1.90;;
9912;SDS011;41380;52.548;13.344;2022-10-16T08:55:38;1.52;;;1.40;;
9912;SDS011;41380;52.548;13.344;2022-10-16T08:58:11;3.38;;;2.25;;
9912;SDS011;41380;52.548;13.344;2022-10-16T09:00:41;1.90;;;1.77;;
9912;SDS011;41380;52.548;13.344;2022-10-16T09:03:13;1.90;;;1.70;;
9912;SDS011;41380;52.548;13.344;2022-10-16T09:08:46;2.17;;;1.60;;
9912;SDS011;41380;52.548;13.344;2022-10-16T09:11:30;1.88;;;1.77;;
9912;SDS011;41380;52.548;13.344;2022-10-16T09:14:13;2.13;;;1.70;;
9912;SDS011;41380;52.548;13.344;2022-10-16T09:17:03;2.00;;;1.83;;
9912;SDS011;41380;52.548;13.344;2022-10-16T09:19:42;1.70;;;1.60;;
9912;SDS011;41380;52.548;13.344;2022-10-16T09:22:14;2.60;;;1.80;;
9912;SDS011;41380;52.548;13.344;2022-10-16T09:24:42;2.13;;;1.65;;
9912;SDS011;41380;52.548;13.344;2022-10-16T09:27:10;2.10;;;1.38;;
9912;SDS011;41380;52.548;13.344;2022-10-16T09:29:37;1.92;;;1.70;;
9912;SDS011;41380;52.548;13.344;2022-10-16T09:32:11;2.63;;;2.03;;
9912;SDS011;41380;52.548;13.344;2022-10-16T09:34:41;1.75;;;1.65;;
9912;SDS011;41380;52.548;13.344;2022-10-16T09:37:12;3.75;;;1.73;;
9912;SDS011;41380;52.548;13.344;2022-10-16T09:39:46;2.85;;;1.52;;
9912;SDS011;41380;52.548;13.344;2022-10-16T09:42:16;2.22;;;1.73;;
9912;SDS011;41380;52.548;13.344;2022-10-16T09:44:47;2.33;;;1.80;;
9912;SDS011;41380;52.548;13.344;2022-10-16T09:47:20;2.00;;;1.40;;
9912;SDS011;41380;52.548;13.344;2022-10-16T09:49:52;2.60;;;1.40;;
9912;SDS011;41380;52.548;13.344;2022-10-16T09:52:20;2.58;;;1.60;;
9912;SDS011;41380;52.548;13.344;2022-10-16T09:54:51;1.85;;;1.50;;
9912;SDS011;41380;52.548;13.344;2022-10-16T09:57:19;1.85;;;1.65;;
9912;SDS011;41380;52.548;13.344;2022-10-16T09:59:48;2.10;;;1.40;;
9912;SDS011;41380;52.548;13.344;2022-10-16T10:02:17;2.65;;;1.55;;
9912;SDS011;41380;52.548;13.344;2022-10-16T10:04:50;3.83;;;2.00;;
9912;SDS011;41380;52.548;13.344;2022-10-16T10:07:21;2.33;;;1.55;;
9912;SDS011;41380;52.548;13.344;2022-10-16T10:09:51;1.92;;;1.40;;
9912;SDS011;41380;52.548;13.344;2022-10-16T10:12:20;1.60;;;1.50;;
9912;SDS011;41380;52.548;13.344;2022-10-16T10:14:50;3.42;;;2.20;;
9912;SDS011;41380;52.548;13.344;2022-10-16T10:17:20;2.03;;;1.55;;
9912;SDS011;41380;52.548;13.344;2022-10-16T10:19:49;3.42;;;1.90;;
9912;SDS011;41380;52.548;13.344;2022-10-16T10:22:25;1.23;;;1.20;;
9912;SDS011;41380;52.548;13.344;2022-10-16T10:24:56;2.75;;;1.40;;
9912;SDS011;41380;52.548;13.344;2022-10-16T10:27:31;3.15;;;1.73;;
9912;SDS011;41380;52.548;13.344;2022-10-16T10:30:05;1.80;;;1.40;;
9912;SDS011;41380;52.548;13.344;2022-10-16T10:32:43;3.88;;;1.48;;
9912;SDS011;41380;52.548;13.344;2022-10-16T10:35:19;1.67;;;1.58;;
9912;SDS011;41380;52.548;13.344;2022-10-16T10:37:55;1.73;;;1.48;;
9912;SDS011;41380;52.548;13.344;2022-10-16T10:40:35;1.50;;;1.40;;
9912;SDS011;41380;52.548;13.344;2022-10-16T10:43:14;1.52;;;1.40;;
9912;SDS011;41380;52.548;13.344;2022-10-16T10:46:04;4.15;;;1.77;;
9912;SDS011;41380;52.548;13.344;2022-10-16T10:48:46;3.30;;;1.60;;
9912;SDS011;41380;52.548;13.344;2022-10-16T10:51:21;1.90;;;1.73;;
9912;SDS011;41380;52.548;13.344;2022-10-16T10:53:56;1.35;;;1.25;;
9912;SDS011;41380;52.548;13.344;2022-10-16T10:56:39;1.60;;;1.50;;
9912;SDS011;41380;52.548;13.344;2022-10-16T10:59:18;1.85;;;1.70;;
9912;SDS011;41380;52.548;13.344;2022-10-16T11:01:58;1.38;;;1.27;;
9912;SDS011;41380;52.548;13.344;2022-10-16T11:04:43;1.17;;;1.17;;
9912;SDS011;41380;52.548;13.344;2022-10-16T11:07:21;2.17;;;1.55;;
9912;SDS011;41380;52.548;13.344;2022-10-16T11:09:53;3.72;;;1.63;;
9912;SDS011;41380;52.548;13.344;2022-10-16T11:12:24;1.58;;;1.48;;
9912;SDS011;41380;52.548;13.344;2022-10-16T11:14:55;1.50;;;1.40;;
9912;SDS011;41380;52.548;13.344;2022-10-16T11:17:27;1.50;;;1.40;;
9912;SDS011;41380;52.548;13.344;2022-10-16T11:20:00;1.50;;;1.10;;
9912;SDS011;41380;52.548;13.344;2022-10-16T11:22:32;1.52;;;1.40;;
9912;SDS011;41380;52.548;13.344;2022-10-16T11:25:02;1.70;;;1.40;;
9912;SDS011;41380;52.548;13.344;2022-10-16T11:27:39;2.97;;;1.30;;
9912;SDS011;41380;52.548;13.344;2022-10-16T11:30:14;2.15;;;1.23;;
9912;SDS011;41380;52.548;13.344;2022-10-16T11:32:49;3.38;;;2.72;;
9912;SDS011;41380;52.548;13.344;2022-10-16T11:35:30;3.30;;;1.60;;
9912;SDS011;41380;52.548;13.344;2022-10-16T11:38:04;1.30;;;1.20;;
9912;SDS011;41380;52.548;13.344;2022-10-16T11:40:38;1.65;;;1.50;;
9912;SDS011;41380;52.548;13.344;2022-10-16T11:43:10;2.40;;;1.40;;
9912;SDS011;41380;52.548;13.344;2022-10-16T11:45:42;1.63;;;1.38;;
9912;SDS011;41380;52.548;13.344;2022-10-16T11:48:15;1.33;;;1.10;;
9912;SDS011;41380;52.548;13.344;2022-10-16T11:50:50;1.50;;;1.40;;
9912;SDS011;41380;52.548;13.344;2022-10-16T11:53:23;1.58;;;1.48;;
9912;SDS011;41380;52.548;13.344;2022-10-16T11:56:00;1.90;;;1.48;;
9912;SDS011;41380;52.548;13.344;2022-10-16T11:58:28;6.32;;;1.40;;
9912;SDS011;41380;52.548;13.344;2022-10-16T12:01:03;1.45;;;1.20;;
9912;SDS011;41380;52.548;13.344;2022-10-16T12:03:42;2.75;;;1.45;;
9912;SDS011;41380;52.548;13.344;2022-10-16T12:06:21;3.03;;;1.20;;
9912;SDS011;41380;52.548;13.344;2022-10-16T12:08:54;1.17;;;1.15;;
9912;SDS011;41380;52.548;13.344;2022-10-16T12:11:30;2.03;;;1.67;;
9912;SDS011;41380;52.548;13.344;2022-10-16T12:14:04;1.35;;;1.02;;
9912;SDS011;41380;52.548;13.344;2022-10-16T12:16:54;2.10;;;1.20;;
9912;SDS011;41380;52.548;13.344;2022-10-16T12:19:23;3.20;;;1.35;;
9912;SDS011;41380;52.548;13.344;2022-10-16T12:21:54;1.63;;;1.25;;
9912;SDS011;41380;52.548;13.344;2022-10-16T12:24:29;2.42;;;0.98;;
9912;SDS011;41380;52.548;13.344;2022-10-16T12:26:59;1.27;;;0.90;;
9912;SDS011;41380;52.548;13.344;2022-10-16T12:29:29;1.67;;;1.02;;
9912;SDS011;41380;52.548;13.344;2022-10-16T12:32:00;1.98;;;0.82;;
9912;SDS011;41380;52.548;13.344;2022-10-16T12:34:29;1.80;;;1.27;;
9912;SDS011;41380;52.548;13.344;2022-10-16T12:37:12;0.93;;;0.93;;
9912;SDS011;41380;52.548;13.344;2022-10-16T12:39:41;1.23;;;1.10;;
9912;SDS011;41380;52.548;13.344;2022-10-16T12:45:21;0.80;;;0.80;;
9912;SDS011;41380;52.548;13.344;2022-10-16T12:47:53;1.10;;;1.00;;
9912;SDS011;41380;52.548;13.344;2022-10-16T12:50:26;0.98;;;0.98;;
9912;SDS011;41380;52.548;13.344;2022-10-16T12:52:58;1.25;;;1.00;;
9912;SDS011;41380;52.548;13.344;2022-10-16T12:55:25;1.90;;;1.80;;
9912;SDS011;41380;52.548;13.344;2022-10-16T12:58:15;0.98;;;0.85;;
9912;SDS011;41380;52.548;13.344;2022-10-16T13:00:50;3.13;;;1.38;;
9912;SDS011;41380;52.548;13.344;2022-10-16T13:03:27;2.65;;;0.90;;
9912;SDS011;41380;52.548;13.344;2022-10-16T13:06:17;0.80;;;0.80;;
9912;SDS011;41380;52.548;13.344;2022-10-16T13:11:55;1.95;;;0.98;;
9912;SDS011;41380;52.548;13.344;2022-10-16T13:14:39;1.10;;;1.00;;
9912;SDS011;41380;52.548;13.344;2022-10-16T13:17:28;0.77;;;0.70;;
9912;SDS011;41380;52.548;13.344;2022-10-16T13:20:03;1.17;;;1.08;;
9912;SDS011;41380;52.548;13.344;2022-10-16T13:22:41;1.40;;;1.30;;
9912;SDS011;41380;52.548;13.344;2022-10-16T13:25:20;3.45;;;2.70;;
9912;SDS011;41380;52.548;13.344;2022-10-16T13:27:54;2.40;;;1.25;;
9912;SDS011;41380;52.548;13.344;2022-10-16T13:30:23;1.83;;;1.45;;
9912;SDS011;41380;52.548;13.344;2022-10-16T13:32:54;2.53;;;1.80;;
9912;SDS011;41380;52.548;13.344;2022-10-16T13:35:26;2.25;;;1.58;;
9912;SDS011;41380;52.548;13.344;2022-10-16T13:40:53;1.88;;;1.50;;
9912;SDS011;41380;52.548;13.344;2022-10-16T13:43:22;1.95;;;1.83;;
9912;SDS011;41380;52.548;13.344;2022-10-16T13:45:52;1.98;;;1.88;;
9912;SDS011;41380;52.548;13.344;2022-10-16T13:48:21;1.13;;;0.95;;
9912;SDS011;41380;52.548;13.344;2022-10-16T13:50:57;0.98;;;0.98;;
9912;SDS011;41380;52.548;13.344;2022-10-16T13:53:26;1.50;;;1.40;;
9912;SDS011;41380;52.548;13.344;2022-10-16T13:55:56;1.80;;;1.70;;
9912;SDS011;41380;52.548;13.344;2022-10-16T13:58:25;1.67;;;1.42;;
9912;SDS011;41380;52.548;13.344;2022-10-16T14:00:54;3.60;;;1.58;;
9912;SDS011;41380;52.548;13.344;2022-10-16T14:03:23;1.55;;;1.00;;
9912;SDS011;41380;52.548;13.344;2022-10-16T14:05:51;1.10;;;1.10;;
9912;SDS011;41380;52.548;13.344;2022-10-16T14:08:20;1.50;;;1.25;;
9912;SDS011;41380;52.548;13.344;2022-10-16T14:10:48;2.17;;;1.60;;
9912;SDS011;41380;52.548;13.344;2022-10-16T14:13:18;1.48;;;1.15;;
9912;SDS011;41380;52.548;13.344;2022-10-16T14:15:51;1.35;;;1.25;;
9912;SDS011;41380;52.548;13.344;2022-10-16T14:18:20;1.42;;;0.70;;
9912;SDS011;41380;52.548;13.344;2022-10-16T14:20:49;1.40;;;1.30;;
9912;SDS011;41380;52.548;13.344;2022-10-16T14:23:19;1.55;;;0.88;;
9912;SDS011;41380;52.548;13.344;2022-10-16T14:25:48;1.98;;;1.20;;
9912;SDS011;41380;52.548;13.344;2022-10-16T14:28:16;1.38;;;0.95;;
9912;SDS011;41380;52.548;13.344;2022-10-16T14:30:49;2.90;;;1.67;;
9912;SDS011;41380;52.548;13.344;2022-10-16T14:33:20;2.10;;;1.33;;
9912;SDS011;41380;52.548;13.344;2022-10-16T14:35:59;1.00;;;1.00;;
9912;SDS011;41380;52.548;13.344;2022-10-16T14:38:28;1.27;;;1.17;;
9912;SDS011;41380;52.548;13.344;2022-10-16T14:40:56;1.27;;;1.20;;
9912;SDS011;41380;52.548;13.344;2022-10-16T14:43:28;3.55;;;0.95;;
9912;SDS011;41380;52.548;13.344;2022-10-16T14:45:59;1.30;;;1.20;;
9912;SDS011;41380;52.548;13.344;2022-10-16T14:48:27;2.35;;;1.10;;
9912;SDS011;41380;52.548;13.344;2022-10-16T14:50:55;1.80;;;1.20;;
9912;SDS011;41380;52.548;13.344;2022-10-16T14:53:21;1.88;;;1.75;;
9912;SDS011;41380;52.548;13.344;2022-10-16T14:55:48;2.20;;;1.27;;
9912;SDS011;41380;52.548;13.344;2022-10-16T14:58:16;2.35;;;1.60;;
9912;SDS011;41380;52.548;13.344;2022-10-16T15:00:46;2.42;;;1.30;;
9912;SDS011;41380;52.548;13.344;2022-10-16T15:03:13;1.58;;;1.48;;
9912;SDS011;41380;52.548;13.344;2022-10-16T15:05:40;1.67;;;1.30;;
9912;SDS011;41380;52.548;13.344;2022-10-16T15:08:07;1.75;;;1.65;;
9912;SDS011;41380;52.548;13.344;2022-10-16T15:10:35;1.23;;;1.23;;
9912;SDS011;41380;52.548;13.344;2022-10-16T15:13:08;1.38;;;1.00;;
9912;SDS011;41380;52.548;13.344;2022-10-16T15:15:39;1.42;;;1.30;;
9912;SDS011;41380;52.548;13.344;2022-10-16T15:18:09;2.05;;;1.30;;
9912;SDS011;41380;52.548;13.344;2022-10-16T15:20:36;1.95;;;1.85;;